createdAt,value
2018-03-06T00:01:18.451Z,14.32
2018-03-06T00:03:45.971Z,16.48
2018-03-06T00:06:13.826Z,16.98
2018-03-06T00:08:41.357Z,16.23
2018-03-06T00:11:08.860Z,15.10
2018-03-06T00:13:36.691Z,16.52
2018-03-06T00:16:04.992Z,14.55
2018-03-06T00:18:33.372Z,14.00
2018-03-06T00:21:01.242Z,11.65
2018-03-06T00:23:28.777Z,13.98
2018-03-06T00:25:56.264Z,14.32
2018-03-06T00:28:24.012Z,13.00
2018-03-06T00:30:51.488Z,15.23
2018-03-06T00:33:19.031Z,16.33
2018-03-06T00:35:46.884Z,16.08
2018-03-06T00:38:14.387Z,14.32
2018-03-06T00:40:41.904Z,18.85
2018-03-06T00:43:10.476Z,15.27
2018-03-06T00:45:38.727Z,15.95
2018-03-06T00:48:06.228Z,18.10
2018-03-06T00:50:34.045Z,13.90
2018-03-06T00:53:01.576Z,17.30
2018-03-06T00:55:29.117Z,15.52
2018-03-06T00:57:57.059Z,16.58
2018-03-06T01:00:25.316Z,15.98
2018-03-06T01:02:52.805Z,15.90
2018-03-06T01:05:21.054Z,14.25
2018-03-06T01:07:48.617Z,17.52
2018-03-06T01:10:16.099Z,19.12
2018-03-06T01:12:43.999Z,20.58
2018-03-06T01:15:11.569Z,15.07
2018-03-06T01:17:39.050Z,13.55
2018-03-06T01:20:06.836Z,15.38
2018-03-06T01:22:35.083Z,16.08
2018-03-06T01:25:02.578Z,15.18
2018-03-06T01:27:30.432Z,17.58
2018-03-06T01:29:57.910Z,16.42
2018-03-06T01:32:25.438Z,16.05
2018-03-06T01:34:53.119Z,16.70
2018-03-06T01:37:21.364Z,16.25
2018-03-06T01:39:48.857Z,17.62
2018-03-06T01:42:17.121Z,15.57
2018-03-06T01:44:45.356Z,18.73
2018-03-06T01:47:12.858Z,18.83
2018-03-06T01:49:41.508Z,17.48
2018-03-06T01:52:08.986Z,17.12
2018-03-06T01:54:36.464Z,16.42
2018-03-06T01:57:04.305Z,20.67
2018-03-06T01:59:31.820Z,19.85
2018-03-06T02:01:59.299Z,17.87
2018-03-06T02:04:26.799Z,14.48
2018-03-06T02:06:54.285Z,20.83
2018-03-06T02:09:21.800Z,18.87
2018-03-06T02:11:49.715Z,15.43
2018-03-06T02:14:17.191Z,19.00
2018-03-06T02:16:44.679Z,20.17
2018-03-06T02:19:12.595Z,16.52
2018-03-06T02:21:40.067Z,17.60
2018-03-06T02:24:07.610Z,21.35
2018-03-06T02:26:35.346Z,17.73
2018-03-06T02:29:02.815Z,18.17
2018-03-06T02:31:30.308Z,16.52
2018-03-06T02:33:58.113Z,17.15
2018-03-06T02:36:25.627Z,15.95
2018-03-06T02:38:53.131Z,19.70
2018-03-06T02:41:20.628Z,14.63
2018-03-06T02:43:48.151Z,19.65
2018-03-06T02:46:16.405Z,18.67
2018-03-06T02:48:44.668Z,18.08
2018-03-06T02:51:12.147Z,19.98
2018-03-06T02:53:40.399Z,17.30
2018-03-06T02:56:07.884Z,16.17
2018-03-06T02:58:36.231Z,15.05
2018-03-06T03:01:04.512Z,16.00
2018-03-06T03:03:32.015Z,20.17
2018-03-06T03:05:59.488Z,19.10
2018-03-06T03:08:26.991Z,21.27
2018-03-06T03:10:54.516Z,17.77
2018-03-06T03:13:21.987Z,19.08
2018-03-06T03:15:49.469Z,20.83
2018-03-06T03:18:17.002Z,18.95
2018-03-06T03:20:44.498Z,19.08
2018-03-06T03:23:12.034Z,20.85
2018-03-06T03:25:39.659Z,19.02
2018-03-06T03:28:07.140Z,19.52
2018-03-06T03:30:34.611Z,19.20
2018-03-06T03:33:02.544Z,21.77
2018-03-06T03:35:30.036Z,17.67
2018-03-06T03:37:57.526Z,17.70
2018-03-06T03:40:25.773Z,19.90
2018-03-06T03:42:53.251Z,25.80
2018-03-06T03:45:21.529Z,13.48
2018-03-06T03:47:50.111Z,20.10
2018-03-06T03:50:18.360Z,20.10
2018-03-06T03:52:45.844Z,18.83
2018-03-06T03:55:14.429Z,18.70
2018-03-06T03:57:42.670Z,21.12
2018-03-06T04:00:10.171Z,21.60
2018-03-06T04:02:37.912Z,20.08
2018-03-06T04:05:05.392Z,19.45
2018-03-06T04:07:32.901Z,25.90
2018-03-06T04:10:00.703Z,20.60
2018-03-06T04:12:28.180Z,23.77
2018-03-06T04:14:55.680Z,18.83
2018-03-06T04:17:23.471Z,19.77
2018-03-06T04:19:51.736Z,21.55
2018-03-06T04:22:19.254Z,21.83
2018-03-06T04:24:47.092Z,25.10
2018-03-06T04:27:14.642Z,24.00
2018-03-06T04:29:42.890Z,24.20
2018-03-06T04:32:11.647Z,20.00
2018-03-06T04:34:39.139Z,17.05
2018-03-06T04:37:06.687Z,23.45
2018-03-06T04:39:34.583Z,23.30
2018-03-06T04:42:02.839Z,23.33
2018-03-06T04:44:30.338Z,24.83
2018-03-06T04:46:58.211Z,22.50
2018-03-06T04:49:25.697Z,19.90
2018-03-06T04:51:53.211Z,25.12
2018-03-06T04:54:20.723Z,22.20
2018-03-06T04:56:48.259Z,19.02
2018-03-06T04:59:15.735Z,24.98
2018-03-06T05:01:43.527Z,26.52
2018-03-06T05:04:11.024Z,23.83
2018-03-06T05:06:38.519Z,24.27
2018-03-06T05:09:06.016Z,23.48
2018-03-06T05:11:34.269Z,24.48
2018-03-06T05:14:01.743Z,20.70
2018-03-06T05:16:30.366Z,24.05
2018-03-06T05:18:57.850Z,23.83
2018-03-06T05:21:26.155Z,21.73
2018-03-06T05:23:53.762Z,22.58
2018-03-06T05:26:21.259Z,22.20
2018-03-06T05:28:48.743Z,26.45
2018-03-06T05:31:17.424Z,23.23
2018-03-06T05:33:45.657Z,26.80
2018-03-06T05:36:13.196Z,27.15
2018-03-06T05:38:40.716Z,25.02
2018-03-06T05:41:08.975Z,26.00
2018-03-06T05:43:36.588Z,28.05
2018-03-06T05:46:04.103Z,29.35
2018-03-06T05:48:32.353Z,21.45
2018-03-06T05:50:59.852Z,25.40
2018-03-06T05:53:27.359Z,27.62
2018-03-06T05:55:54.900Z,25.58
2018-03-06T05:58:22.398Z,27.23
2018-03-06T06:00:50.423Z,24.40
2018-03-06T06:03:17.944Z,28.77
2018-03-06T06:05:45.496Z,28.48
2018-03-06T06:08:14.127Z,30.80
2018-03-06T06:10:41.624Z,27.30
2018-03-06T06:13:09.111Z,28.50
2018-03-06T06:15:36.674Z,29.02
2018-03-06T06:18:04.132Z,27.52
2018-03-06T06:20:31.719Z,31.40
2018-03-06T06:22:59.199Z,31.02
2018-03-06T06:25:27.453Z,29.00
2018-03-06T06:27:54.986Z,33.25
2018-03-06T06:30:22.848Z,31.52
2018-03-06T06:32:50.348Z,29.75
2018-03-06T06:35:18.132Z,29.20
2018-03-06T06:37:45.900Z,29.10
2018-03-06T06:40:13.371Z,28.87
2018-03-06T06:42:41.660Z,29.63
2018-03-06T06:45:09.256Z,31.70
2018-03-06T06:47:36.736Z,26.30
2018-03-06T06:50:04.266Z,27.02
2018-03-06T06:52:32.112Z,25.45
2018-03-06T06:55:00.355Z,27.67
2018-03-06T06:57:27.894Z,30.08
2018-03-06T06:59:55.760Z,22.23
2018-03-06T07:02:23.302Z,25.23
2018-03-06T07:04:53.835Z,26.00
2018-03-06T07:07:23.688Z,28.85
2018-03-06T07:09:51.284Z,17.02
2018-03-06T07:12:18.775Z,26.70
2018-03-06T07:14:46.680Z,28.62
2018-03-06T07:17:14.171Z,29.87
2018-03-06T07:19:41.658Z,25.90
2018-03-06T07:22:09.455Z,30.10
2018-03-06T07:24:37.695Z,29.83
2018-03-06T07:27:05.192Z,25.83
2018-03-06T07:29:33.488Z,29.35
2018-03-06T07:32:01.014Z,31.15
2018-03-06T07:34:28.591Z,31.23
2018-03-06T07:36:56.855Z,28.05
2018-03-06T07:39:24.343Z,31.48
2018-03-06T07:41:51.883Z,30.75
2018-03-06T07:44:20.455Z,31.52
2018-03-06T07:46:47.926Z,20.65
2018-03-06T07:49:16.192Z,28.75
2018-03-06T07:51:43.967Z,24.87
2018-03-06T07:54:12.219Z,29.20
2018-03-06T07:56:39.796Z,31.52
2018-03-06T07:59:08.055Z,24.48
2018-03-06T08:01:36.336Z,12.63
2018-03-06T08:04:03.799Z,24.25
2018-03-06T08:06:32.072Z,24.23
2018-03-06T08:08:59.556Z,23.42
2018-03-06T08:11:27.101Z,26.60
2018-03-06T08:13:54.959Z,22.13
2018-03-06T08:16:23.278Z,28.27
2018-03-06T08:18:50.743Z,27.95
2018-03-06T08:21:18.600Z,27.55
2018-03-06T08:23:46.104Z,25.77
2018-03-06T08:26:14.440Z,22.95
2018-03-06T08:28:42.344Z,26.58
2018-03-06T08:31:10.660Z,29.10
2018-03-06T08:33:38.165Z,31.98
2018-03-06T08:36:05.971Z,22.73
2018-03-06T08:38:34.310Z,27.45
2018-03-06T08:41:02.974Z,23.50
2018-03-06T08:43:31.318Z,26.17
2018-03-06T08:45:58.830Z,25.23
2018-03-06T08:48:26.322Z,27.35
2018-03-06T08:50:54.579Z,25.83
2018-03-06T08:53:22.068Z,26.65
2018-03-06T08:55:49.560Z,25.95
2018-03-06T08:58:17.369Z,26.27
2018-03-06T09:00:45.600Z,26.85
2018-03-06T09:03:13.124Z,30.12
2018-03-06T09:05:41.027Z,30.10
2018-03-06T09:08:08.489Z,26.92
2018-03-06T09:10:35.969Z,28.15
2018-03-06T09:13:03.452Z,25.70
2018-03-06T09:15:30.971Z,17.37
2018-03-06T09:17:58.454Z,28.20
2018-03-06T09:20:26.728Z,28.40
2018-03-06T09:22:55.083Z,28.60
2018-03-06T09:25:22.574Z,28.80
2018-03-06T09:27:50.829Z,28.42
2018-03-06T09:30:18.343Z,28.70
2018-03-06T09:32:45.903Z,28.73
2018-03-06T09:35:13.420Z,25.67
2018-03-06T09:37:41.649Z,28.35
2018-03-06T09:40:09.132Z,26.12
2018-03-06T09:42:36.681Z,21.85
2018-03-06T09:45:04.159Z,25.58
2018-03-06T09:47:32.489Z,26.55
2018-03-06T09:49:59.981Z,22.67
2018-03-06T09:52:27.516Z,25.00
2018-03-06T09:54:55.051Z,24.27
2018-03-06T09:57:22.696Z,20.67
2018-03-06T09:59:50.208Z,20.88
2018-03-06T10:02:17.708Z,26.73
2018-03-06T10:04:46.417Z,23.92
2018-03-06T10:07:13.947Z,25.52
2018-03-06T10:09:42.230Z,24.10
2018-03-06T10:12:10.523Z,26.08
2018-03-06T10:14:38.037Z,24.55
2018-03-06T10:17:05.664Z,24.63
2018-03-06T10:19:33.534Z,22.85
2018-03-06T10:22:01.012Z,20.85
2018-03-06T10:24:28.537Z,23.80
2018-03-06T10:26:56.061Z,21.08
2018-03-06T10:29:24.299Z,21.83
2018-03-06T10:31:51.786Z,23.25
2018-03-06T10:34:20.038Z,21.60
2018-03-06T10:36:47.531Z,21.92
2018-03-06T10:39:15.814Z,24.90
2018-03-06T10:41:44.143Z,19.17
2018-03-06T10:44:11.663Z,21.92
2018-03-06T10:46:39.169Z,22.62
2018-03-06T10:49:06.660Z,22.52
2018-03-06T10:51:34.196Z,23.40
2018-03-06T10:54:01.692Z,23.70
2018-03-06T10:56:29.199Z,23.58
2018-03-06T10:58:57.447Z,20.90
2018-03-06T11:01:24.931Z,21.10
2018-03-06T11:03:52.511Z,22.37
2018-03-06T11:06:20.742Z,20.55
2018-03-06T11:08:48.283Z,22.35
2018-03-06T11:11:16.726Z,26.70
2018-03-06T11:13:44.235Z,23.15
2018-03-06T11:16:11.717Z,23.75
2018-03-06T11:18:39.228Z,21.62
2018-03-06T11:21:07.272Z,20.60
2018-03-06T11:23:35.789Z,21.85
2018-03-06T11:26:05.499Z,21.62
2018-03-06T11:28:33.059Z,23.62
2018-03-06T11:31:00.595Z,23.08
2018-03-06T11:33:28.443Z,21.27
2018-03-06T11:35:56.705Z,20.62
2018-03-06T11:38:24.257Z,19.90
2018-03-06T11:40:52.357Z,21.70
2018-03-06T11:43:20.602Z,21.52
2018-03-06T11:45:48.106Z,21.10
2018-03-06T11:48:15.974Z,21.52
2018-03-06T11:50:43.462Z,19.90
2018-03-06T11:53:10.948Z,18.58
2018-03-06T11:55:38.448Z,19.83
2018-03-06T11:58:05.952Z,20.45
2018-03-06T12:00:33.443Z,20.00
2018-03-06T12:03:01.707Z,24.60
2018-03-06T12:05:29.236Z,19.60
2018-03-06T12:07:56.739Z,19.23
2018-03-06T12:10:25.061Z,19.25
2018-03-06T12:12:52.666Z,21.12
2018-03-06T12:15:20.949Z,21.25
2018-03-06T12:17:49.262Z,19.52
2018-03-06T12:20:16.880Z,18.98
2018-03-06T12:22:44.408Z,18.87
2018-03-06T12:25:11.899Z,19.60
2018-03-06T12:27:40.196Z,20.35
2018-03-06T12:30:07.718Z,24.02
2018-03-06T12:32:35.329Z,16.75
2018-03-06T12:35:02.818Z,18.90
2018-03-06T12:37:30.295Z,18.33
2018-03-06T12:39:57.906Z,20.40
2018-03-06T12:42:25.521Z,19.33
2018-03-06T12:44:53.794Z,18.48
2018-03-06T12:47:22.417Z,22.67
2018-03-06T12:49:49.934Z,15.65
2018-03-06T12:52:17.437Z,16.15
2018-03-06T12:54:45.250Z,15.80
2018-03-06T12:57:12.739Z,20.48
2018-03-06T12:59:41.090Z,16.08
2018-03-06T13:02:09.598Z,15.45
2018-03-06T13:04:39.140Z,18.02
2018-03-06T13:07:12.136Z,13.85
2018-03-06T13:09:39.636Z,9.52
2018-03-06T13:12:07.946Z,9.10
2018-03-06T13:14:35.718Z,9.57
2018-03-06T13:17:03.200Z,11.27
2018-03-06T13:19:30.714Z,9.45
2018-03-06T13:21:58.240Z,8.25
2018-03-06T13:24:26.559Z,8.60
2018-03-06T13:26:54.037Z,13.65
2018-03-06T13:29:21.570Z,7.78
2018-03-06T13:31:49.055Z,9.95
2018-03-06T13:34:17.378Z,7.80
2018-03-06T13:36:45.727Z,8.20
2018-03-06T13:39:13.208Z,9.23
2018-03-06T13:41:41.884Z,13.32
2018-03-06T13:44:09.695Z,12.43
2018-03-06T13:46:37.188Z,10.40
2018-03-06T13:49:04.713Z,11.98
2018-03-06T13:51:32.247Z,11.60
2018-03-06T13:53:59.740Z,13.15
2018-03-06T13:56:27.229Z,13.18
2018-03-06T13:58:54.901Z,13.62
2018-03-06T14:01:22.371Z,14.50
2018-03-06T14:03:49.871Z,13.30
2018-03-06T14:06:17.364Z,14.30
2018-03-06T14:08:45.014Z,27.37
2018-03-06T14:11:12.515Z,14.93
2018-03-06T14:13:40.464Z,13.35
2018-03-06T14:16:08.718Z,18.83
2018-03-06T14:18:36.236Z,13.85
2018-03-06T14:21:03.802Z,14.40
2018-03-06T14:23:31.285Z,14.68
2018-03-06T14:25:58.780Z,12.88
2018-03-06T14:28:27.077Z,12.63
2018-03-06T14:30:54.588Z,13.23
2018-03-06T14:33:22.076Z,14.02
2018-03-06T14:35:50.760Z,12.18
2018-03-06T14:38:19.022Z,10.88
2018-03-06T14:40:46.510Z,13.38
2018-03-06T14:43:14.015Z,12.35
2018-03-06T14:45:41.566Z,8.77
2018-03-06T14:48:09.101Z,8.95
2018-03-06T14:50:36.608Z,11.15
2018-03-06T14:53:04.085Z,7.60
2018-03-06T14:55:31.936Z,7.87
2018-03-06T14:58:01.051Z,8.27
2018-03-06T15:00:28.594Z,6.25
2018-03-06T15:02:56.310Z,6.32
2018-03-06T15:05:24.411Z,8.40
2018-03-06T15:07:51.948Z,10.25
2018-03-06T15:10:19.618Z,7.75
2018-03-06T15:12:47.472Z,5.28
2018-03-06T15:15:15.121Z,5.28
2018-03-06T15:17:42.647Z,6.87
2018-03-06T15:20:10.172Z,7.85
2018-03-06T15:22:37.695Z,7.35
2018-03-06T15:25:05.186Z,5.97
2018-03-06T15:27:32.707Z,8.35
2018-03-06T15:30:00.197Z,6.37
2018-03-06T15:32:27.687Z,9.77
2018-03-06T15:34:56.103Z,6.75
2018-03-06T15:37:23.595Z,5.65
2018-03-06T15:39:51.258Z,6.60
2018-03-06T15:42:19.669Z,5.65
2018-03-06T15:44:47.237Z,6.22
2018-03-06T15:47:14.783Z,7.90
2018-03-06T15:49:42.410Z,8.50
2018-03-06T15:52:09.989Z,5.10
2018-03-06T15:54:38.310Z,4.72
2018-03-06T15:57:05.947Z,4.22
2018-03-06T15:59:33.560Z,6.50
2018-03-06T16:02:01.124Z,5.32
2018-03-06T16:04:28.742Z,3.62
2018-03-06T16:06:56.440Z,3.62
2018-03-06T16:09:24.014Z,5.45
2018-03-06T16:11:52.466Z,7.70
2018-03-06T16:14:20.055Z,6.22
2018-03-06T16:16:47.608Z,4.80
2018-03-06T16:19:15.583Z,6.82
2018-03-06T16:21:43.178Z,4.68
2018-03-06T16:24:10.805Z,7.80
2018-03-06T16:26:38.744Z,8.10
2018-03-06T16:29:06.346Z,5.78
2018-03-06T16:31:34.754Z,6.65
2018-03-06T16:34:02.630Z,9.07
2018-03-06T16:36:30.222Z,7.70
2018-03-06T16:38:57.788Z,9.20
2018-03-06T16:41:25.646Z,6.25
2018-03-06T16:43:53.241Z,6.30
2018-03-06T16:46:21.604Z,6.70
2018-03-06T16:48:49.338Z,9.23
2018-03-06T16:51:16.960Z,8.70
2018-03-06T16:53:44.596Z,6.07
2018-03-06T16:56:12.550Z,6.97
2018-03-06T16:58:40.255Z,7.47
2018-03-06T17:01:07.810Z,6.90
2018-03-06T17:03:35.812Z,4.40
2018-03-06T17:06:03.404Z,7.87
2018-03-06T17:08:31.034Z,6.12
2018-03-06T17:10:58.955Z,6.47
2018-03-06T17:13:26.525Z,5.28
2018-03-06T17:15:54.086Z,6.45
2018-03-06T17:18:21.949Z,8.52
2018-03-06T17:20:49.593Z,11.73
2018-03-06T17:23:18.079Z,10.43
2018-03-06T17:25:46.373Z,17.87
2018-03-06T17:28:14.012Z,17.37
2018-03-06T17:30:42.065Z,10.15
2018-03-06T17:33:09.924Z,11.88
2018-03-06T17:35:37.529Z,12.10
2018-03-06T17:38:05.111Z,14.40
2018-03-06T17:40:33.038Z,13.10
2018-03-06T17:43:01.380Z,12.00
2018-03-06T17:45:28.939Z,12.85
2018-03-06T17:47:56.641Z,7.57
2018-03-06T17:50:24.997Z,8.73
2018-03-06T17:52:52.554Z,10.90
2018-03-06T17:55:20.468Z,13.65
2018-03-06T17:57:48.057Z,9.35
2018-03-06T18:00:15.630Z,10.45
2018-03-06T18:02:43.492Z,9.63
2018-03-06T18:05:11.067Z,11.23
2018-03-06T18:07:38.626Z,13.10
2018-03-06T18:10:06.479Z,11.82
2018-03-06T18:12:34.125Z,13.07
2018-03-06T18:15:01.862Z,7.95
2018-03-06T18:17:29.769Z,9.57
2018-03-06T18:19:57.408Z,9.02
2018-03-06T18:22:24.995Z,8.05
2018-03-06T18:24:52.652Z,9.48
2018-03-06T18:27:20.217Z,10.98
2018-03-06T18:29:47.781Z,34.38
2018-03-06T18:32:16.536Z,30.80
2018-03-06T18:34:44.157Z,34.88
2018-03-06T18:37:12.469Z,21.95
2018-03-06T18:39:40.370Z,17.87
2018-03-06T18:42:08.797Z,14.02
2018-03-06T18:44:37.149Z,12.52
2018-03-06T18:47:04.761Z,11.18
2018-03-06T18:49:32.451Z,10.38
2018-03-06T18:52:00.818Z,13.80
2018-03-06T18:54:28.401Z,16.73
2018-03-06T18:56:57.542Z,11.68
2018-03-06T18:59:25.161Z,19.65
2018-03-06T19:15:22.879Z,15.15
2018-03-06T19:17:50.434Z,14.87
2018-03-06T19:20:18.095Z,12.27
2018-03-06T19:22:46.009Z,15.05
2018-03-06T19:25:14.385Z,14.35
2018-03-06T19:27:42.722Z,19.92
2018-03-06T19:30:10.728Z,10.70
2018-03-06T19:32:39.057Z,12.57
2018-03-06T19:35:06.551Z,19.80
2018-03-06T19:37:34.356Z,16.67
2018-03-06T19:40:01.896Z,13.70
2018-03-06T19:42:30.227Z,13.20
2018-03-06T19:44:58.083Z,13.88
2018-03-06T19:47:25.648Z,14.25
2018-03-06T19:49:53.146Z,15.73
2018-03-06T19:52:20.636Z,16.55
2018-03-06T19:54:48.140Z,15.57
2018-03-06T19:57:15.707Z,18.23
2018-03-06T19:59:43.647Z,27.58
2018-03-06T20:02:11.287Z,20.80
2018-03-06T20:04:39.815Z,18.00
2018-03-06T20:07:07.639Z,18.65
2018-03-06T20:09:35.168Z,18.85
2018-03-06T20:12:03.487Z,15.77
2018-03-06T20:14:36.841Z,16.35
2018-03-06T20:17:04.439Z,16.27
2018-03-06T20:19:37.936Z,13.65
2018-03-06T20:22:05.430Z,13.62
2018-03-06T20:24:39.160Z,13.80
2018-03-06T20:27:07.476Z,16.90
2018-03-06T20:29:34.998Z,14.55
2018-03-06T20:32:09.058Z,16.12
2018-03-06T20:34:36.565Z,13.55
2018-03-06T20:37:04.816Z,15.63
2018-03-06T20:39:38.230Z,16.10
2018-03-06T20:42:06.663Z,13.80
2018-03-06T20:44:34.215Z,14.87
2018-03-06T20:47:07.407Z,15.45
2018-03-06T20:49:34.930Z,13.80
2018-03-06T20:52:03.172Z,15.00
2018-03-06T20:54:36.420Z,12.98
2018-03-06T20:57:04.017Z,14.43
2018-03-06T20:59:31.508Z,18.02
2018-03-06T21:02:00.208Z,14.38
2018-03-06T21:04:28.490Z,14.73
2018-03-06T21:06:56.805Z,15.52
2018-03-06T21:09:24.308Z,27.30
2018-03-06T21:11:51.957Z,18.60
2018-03-06T21:14:20.253Z,18.10
2018-03-06T21:16:47.788Z,17.35
2018-03-06T21:19:15.292Z,18.48
2018-03-06T21:21:43.473Z,44.55
2018-03-06T21:24:10.988Z,27.75
2018-03-06T21:26:39.304Z,18.27
2018-03-06T21:29:06.861Z,21.92
2018-03-06T21:31:34.857Z,15.93
2018-03-06T21:34:02.483Z,14.73
2018-03-06T21:36:30.031Z,16.58
2018-03-06T21:38:58.225Z,17.23
2018-03-06T21:41:25.724Z,13.62
2018-03-06T21:43:53.219Z,14.43
2018-03-06T21:46:21.477Z,17.70
2018-03-06T21:48:48.960Z,14.90
2018-03-06T21:51:16.439Z,16.65
2018-03-06T21:53:43.977Z,17.42
2018-03-06T21:56:11.554Z,18.48
2018-03-06T21:58:39.115Z,15.90
2018-03-06T22:01:06.940Z,15.55
2018-03-06T22:03:35.258Z,16.30
2018-03-06T22:06:02.763Z,15.10
2018-03-06T22:08:30.256Z,16.65
2018-03-06T22:10:57.791Z,16.90
2018-03-06T22:13:26.211Z,20.55
2018-03-06T22:15:53.726Z,17.40
2018-03-06T22:18:21.247Z,17.33
2018-03-06T22:20:48.860Z,19.58
2018-03-06T22:23:16.680Z,24.00
2018-03-06T22:25:44.225Z,27.85
2018-03-06T22:28:11.716Z,20.20
2018-03-06T22:30:39.696Z,24.05
2018-03-06T22:33:07.948Z,21.90
2018-03-06T22:35:35.439Z,20.48
2018-03-06T22:38:04.053Z,21.58
2018-03-06T22:40:31.605Z,24.70
2018-03-06T22:42:59.171Z,21.87
2018-03-06T22:45:26.664Z,21.40
2018-03-06T22:47:54.164Z,22.58
2018-03-06T22:50:21.747Z,26.73
2018-03-06T22:52:50.664Z,22.60
2018-03-06T22:55:18.152Z,23.00
2018-03-06T22:57:46.029Z,20.92
2018-03-06T23:00:14.302Z,18.73
2018-03-06T23:02:42.625Z,18.62
2018-03-06T23:05:10.092Z,19.17
2018-03-06T23:07:37.861Z,24.08
2018-03-06T23:10:05.490Z,19.45
2018-03-06T23:12:32.962Z,18.58
2018-03-06T23:15:00.487Z,17.83
2018-03-06T23:17:27.996Z,23.35
2018-03-06T23:19:55.496Z,17.67
2018-03-06T23:22:23.762Z,22.15
2018-03-06T23:24:52.003Z,22.05
2018-03-06T23:27:19.486Z,23.52
2018-03-06T23:29:48.596Z,21.73
2018-03-06T23:32:16.859Z,24.27
2018-03-06T23:34:45.119Z,34.13
2018-03-06T23:37:13.720Z,20.95
2018-03-06T23:39:41.223Z,22.65
2018-03-06T23:42:08.747Z,18.37
2018-03-06T23:44:37.319Z,18.60
2018-03-06T23:47:21.200Z,20.15
2018-03-06T23:49:48.739Z,21.40
2018-03-06T23:52:16.286Z,24.12
2018-03-06T23:54:44.555Z,21.58
2018-03-06T23:57:12.158Z,21.33
2018-03-06T23:59:39.649Z,21.23
